sensor_id;sensor_type;location;lat;lon;timestamp;P1;durP1;ratioP1;P2;durP2;ratioP2
20705;SDS011;10514;49.468;11.044;2022-08-19T00:00:45;15.70;;;13.70;;
20705;SDS011;10514;49.468;11.044;2022-08-19T00:03:11;20.08;;;15.55;;
20705;SDS011;10514;49.468;11.044;2022-08-19T00:05:37;16.67;;;13.80;;
20705;SDS011;10514;49.468;11.044;2022-08-19T00:08:03;16.02;;;14.30;;
20705;SDS011;10514;49.468;11.044;2022-08-19T00:10:29;18.08;;;15.15;;
20705;SDS011;10514;49.468;11.044;2022-08-19T00:12:54;14.40;;;12.85;;
20705;SDS011;10514;49.468;11.044;2022-08-19T00:15:20;18.60;;;15.70;;
20705;SDS011;10514;49.468;11.044;2022-08-19T00:17:46;19.10;;;15.73;;
20705;SDS011;10514;49.468;11.044;2022-08-19T00:20:14;17.90;;;14.77;;
20705;SDS011;10514;49.468;11.044;2022-08-19T00:22:42;17.60;;;15.30;;
20705;SDS011;10514;49.468;11.044;2022-08-19T00:25:09;19.27;;;14.70;;
20705;SDS011;10514;49.468;11.044;2022-08-19T00:27:35;24.50;;;17.55;;
20705;SDS011;10514;49.468;11.044;2022-08-19T00:30:01;15.73;;;14.02;;
20705;SDS011;10514;49.468;11.044;2022-08-19T00:32:28;20.55;;;15.52;;
20705;SDS011;10514;49.468;11.044;2022-08-19T00:34:54;19.63;;;16.00;;
20705;SDS011;10514;49.468;11.044;2022-08-19T00:37:21;19.52;;;17.42;;
20705;SDS011;10514;49.468;11.044;2022-08-19T00:39:48;16.83;;;14.25;;
20705;SDS011;10514;49.468;11.044;2022-08-19T00:42:16;22.15;;;18.95;;
20705;SDS011;10514;49.468;11.044;2022-08-19T00:44:42;20.98;;;16.42;;
20705;SDS011;10514;49.468;11.044;2022-08-19T00:47:08;20.13;;;15.88;;
20705;SDS011;10514;49.468;11.044;2022-08-19T00:49:35;21.17;;;16.98;;
20705;SDS011;10514;49.468;11.044;2022-08-19T00:52:23;18.80;;;16.10;;
20705;SDS011;10514;49.468;11.044;2022-08-19T00:54:48;15.02;;;13.52;;
20705;SDS011;10514;49.468;11.044;2022-08-19T00:57:15;21.92;;;16.92;;
20705;SDS011;10514;49.468;11.044;2022-08-19T00:59:44;18.90;;;14.95;;
20705;SDS011;10514;49.468;11.044;2022-08-19T01:02:10;17.60;;;14.55;;
20705;SDS011;10514;49.468;11.044;2022-08-19T01:04:37;20.63;;;17.15;;
20705;SDS011;10514;49.468;11.044;2022-08-19T01:07:02;21.55;;;17.42;;
20705;SDS011;10514;49.468;11.044;2022-08-19T01:09:29;17.17;;;15.40;;
20705;SDS011;10514;49.468;11.044;2022-08-19T01:11:55;22.63;;;19.35;;
20705;SDS011;10514;49.468;11.044;2022-08-19T01:14:21;19.30;;;16.48;;
20705;SDS011;10514;49.468;11.044;2022-08-19T01:16:47;18.52;;;16.38;;
20705;SDS011;10514;49.468;11.044;2022-08-19T01:19:29;20.70;;;17.60;;
20705;SDS011;10514;49.468;11.044;2022-08-19T01:22:01;19.25;;;16.88;;
20705;SDS011;10514;49.468;11.044;2022-08-19T01:24:30;17.75;;;15.85;;
20705;SDS011;10514;49.468;11.044;2022-08-19T01:26:56;20.08;;;16.92;;
20705;SDS011;10514;49.468;11.044;2022-08-19T01:29:23;21.63;;;18.50;;
20705;SDS011;10514;49.468;11.044;2022-08-19T01:31:49;24.67;;;19.63;;
20705;SDS011;10514;49.468;11.044;2022-08-19T01:34:17;18.08;;;15.70;;
20705;SDS011;10514;49.468;11.044;2022-08-19T01:36:44;18.55;;;16.58;;
20705;SDS011;10514;49.468;11.044;2022-08-19T01:39:13;22.67;;;18.05;;
20705;SDS011;10514;49.468;11.044;2022-08-19T01:41:41;19.55;;;17.55;;
20705;SDS011;10514;49.468;11.044;2022-08-19T01:44:08;20.42;;;16.23;;
20705;SDS011;10514;49.468;11.044;2022-08-19T01:46:34;21.90;;;16.70;;
20705;SDS011;10514;49.468;11.044;2022-08-19T01:49:01;18.95;;;16.98;;
20705;SDS011;10514;49.468;11.044;2022-08-19T01:51:27;18.48;;;15.15;;
20705;SDS011;10514;49.468;11.044;2022-08-19T01:53:53;21.10;;;16.55;;
20705;SDS011;10514;49.468;11.044;2022-08-19T01:56:20;22.38;;;16.08;;
20705;SDS011;10514;49.468;11.044;2022-08-19T01:58:51;17.50;;;15.00;;
20705;SDS011;10514;49.468;11.044;2022-08-19T02:01:20;20.27;;;17.80;;
20705;SDS011;10514;49.468;11.044;2022-08-19T02:03:49;23.63;;;18.15;;
20705;SDS011;10514;49.468;11.044;2022-08-19T02:06:18;22.48;;;18.42;;
20705;SDS011;10514;49.468;11.044;2022-08-19T02:08:44;20.23;;;16.63;;
20705;SDS011;10514;49.468;11.044;2022-08-19T02:11:17;21.80;;;16.45;;
20705;SDS011;10514;49.468;11.044;2022-08-19T02:13:47;21.95;;;18.20;;
20705;SDS011;10514;49.468;11.044;2022-08-19T02:16:14;21.92;;;17.52;;
20705;SDS011;10514;49.468;11.044;2022-08-19T02:18:40;21.13;;;17.92;;
20705;SDS011;10514;49.468;11.044;2022-08-19T02:21:06;20.55;;;18.10;;
20705;SDS011;10514;49.468;11.044;2022-08-19T02:23:32;25.05;;;20.13;;
20705;SDS011;10514;49.468;11.044;2022-08-19T02:25:57;21.50;;;18.50;;
20705;SDS011;10514;49.468;11.044;2022-08-19T02:28:23;24.17;;;17.42;;
20705;SDS011;10514;49.468;11.044;2022-08-19T02:30:49;24.65;;;19.77;;
20705;SDS011;10514;49.468;11.044;2022-08-19T02:33:16;26.92;;;19.05;;
20705;SDS011;10514;49.468;11.044;2022-08-19T02:35:46;24.42;;;19.88;;
20705;SDS011;10514;49.468;11.044;2022-08-19T02:38:12;22.70;;;19.52;;
20705;SDS011;10514;49.468;11.044;2022-08-19T02:40:51;21.92;;;17.63;;
20705;SDS011;10514;49.468;11.044;2022-08-19T02:43:19;27.25;;;21.23;;
20705;SDS011;10514;49.468;11.044;2022-08-19T02:45:45;24.25;;;18.88;;
20705;SDS011;10514;49.468;11.044;2022-08-19T02:48:13;25.02;;;19.00;;
20705;SDS011;10514;49.468;11.044;2022-08-19T02:50:39;22.10;;;18.38;;
20705;SDS011;10514;49.468;11.044;2022-08-19T02:53:05;27.92;;;22.05;;
20705;SDS011;10514;49.468;11.044;2022-08-19T02:55:33;24.25;;;19.10;;
20705;SDS011;10514;49.468;11.044;2022-08-19T02:57:59;23.17;;;18.45;;
20705;SDS011;10514;49.468;11.044;2022-08-19T03:00:26;22.67;;;18.30;;
20705;SDS011;10514;49.468;11.044;2022-08-19T03:02:52;22.65;;;18.70;;
20705;SDS011;10514;49.468;11.044;2022-08-19T03:05:18;22.92;;;19.52;;
20705;SDS011;10514;49.468;11.044;2022-08-19T03:07:44;20.42;;;17.38;;
20705;SDS011;10514;49.468;11.044;2022-08-19T03:10:11;25.20;;;21.13;;
20705;SDS011;10514;49.468;11.044;2022-08-19T03:12:39;24.73;;;19.73;;
20705;SDS011;10514;49.468;11.044;2022-08-19T03:15:06;28.73;;;22.98;;
20705;SDS011;10514;49.468;11.044;2022-08-19T03:17:33;26.02;;;21.15;;
20705;SDS011;10514;49.468;11.044;2022-08-19T03:19:59;21.83;;;18.67;;
20705;SDS011;10514;49.468;11.044;2022-08-19T03:22:24;26.67;;;20.95;;
20705;SDS011;10514;49.468;11.044;2022-08-19T03:24:50;26.60;;;21.95;;
20705;SDS011;10514;49.468;11.044;2022-08-19T03:27:16;30.27;;;21.83;;
20705;SDS011;10514;49.468;11.044;2022-08-19T03:29:42;24.30;;;19.90;;
20705;SDS011;10514;49.468;11.044;2022-08-19T03:32:09;24.10;;;19.63;;
20705;SDS011;10514;49.468;11.044;2022-08-19T03:34:36;32.88;;;24.65;;
20705;SDS011;10514;49.468;11.044;2022-08-19T03:37:04;30.67;;;24.60;;
20705;SDS011;10514;49.468;11.044;2022-08-19T03:39:30;27.83;;;22.10;;
20705;SDS011;10514;49.468;11.044;2022-08-19T03:41:56;29.13;;;23.38;;
20705;SDS011;10514;49.468;11.044;2022-08-19T03:44:26;26.58;;;21.15;;
20705;SDS011;10514;49.468;11.044;2022-08-19T03:46:52;29.85;;;22.70;;
20705;SDS011;10514;49.468;11.044;2022-08-19T03:49:20;32.10;;;23.45;;
20705;SDS011;10514;49.468;11.044;2022-08-19T03:51:47;34.25;;;25.00;;
20705;SDS011;10514;49.468;11.044;2022-08-19T03:54:15;30.42;;;21.83;;
20705;SDS011;10514;49.468;11.044;2022-08-19T03:56:41;29.23;;;23.30;;
20705;SDS011;10514;49.468;11.044;2022-08-19T03:59:09;30.90;;;24.23;;
20705;SDS011;10514;49.468;11.044;2022-08-19T04:01:35;29.15;;;23.17;;
20705;SDS011;10514;49.468;11.044;2022-08-19T04:04:02;34.33;;;24.55;;
20705;SDS011;10514;49.468;11.044;2022-08-19T04:06:29;30.48;;;24.73;;
20705;SDS011;10514;49.468;11.044;2022-08-19T04:08:56;29.65;;;23.40;;
20705;SDS011;10514;49.468;11.044;2022-08-19T04:11:24;31.20;;;22.30;;
20705;SDS011;10514;49.468;11.044;2022-08-19T04:13:52;31.55;;;22.45;;
20705;SDS011;10514;49.468;11.044;2022-08-19T04:16:19;33.47;;;24.30;;
20705;SDS011;10514;49.468;11.044;2022-08-19T04:18:46;30.00;;;22.75;;
20705;SDS011;10514;49.468;11.044;2022-08-19T04:21:20;28.88;;;22.08;;
20705;SDS011;10514;49.468;11.044;2022-08-19T04:23:46;29.38;;;21.48;;
20705;SDS011;10514;49.468;11.044;2022-08-19T04:26:24;30.60;;;24.25;;
20705;SDS011;10514;49.468;11.044;2022-08-19T04:28:51;29.92;;;21.52;;
20705;SDS011;10514;49.468;11.044;2022-08-19T04:31:18;33.00;;;24.98;;
20705;SDS011;10514;49.468;11.044;2022-08-19T04:33:44;35.40;;;25.17;;
20705;SDS011;10514;49.468;11.044;2022-08-19T04:36:17;31.02;;;22.83;;
20705;SDS011;10514;49.468;11.044;2022-08-19T04:38:44;31.02;;;21.33;;
20705;SDS011;10514;49.468;11.044;2022-08-19T04:41:09;27.67;;;22.48;;
20705;SDS011;10514;49.468;11.044;2022-08-19T04:43:54;32.67;;;23.95;;
20705;SDS011;10514;49.468;11.044;2022-08-19T04:46:20;31.88;;;23.00;;
20705;SDS011;10514;49.468;11.044;2022-08-19T04:48:46;31.33;;;20.08;;
20705;SDS011;10514;49.468;11.044;2022-08-19T04:51:12;39.15;;;25.77;;
20705;SDS011;10514;49.468;11.044;2022-08-19T04:53:40;30.42;;;21.77;;
20705;SDS011;10514;49.468;11.044;2022-08-19T04:56:10;29.35;;;22.35;;
20705;SDS011;10514;49.468;11.044;2022-08-19T04:58:37;30.10;;;21.33;;
20705;SDS011;10514;49.468;11.044;2022-08-19T05:01:03;33.22;;;24.63;;
20705;SDS011;10514;49.468;11.044;2022-08-19T05:03:30;35.10;;;24.48;;
20705;SDS011;10514;49.468;11.044;2022-08-19T05:05:58;32.10;;;24.42;;
20705;SDS011;10514;49.468;11.044;2022-08-19T05:08:24;31.45;;;21.83;;
20705;SDS011;10514;49.468;11.044;2022-08-19T05:10:50;35.00;;;24.27;;
20705;SDS011;10514;49.468;11.044;2022-08-19T05:13:17;33.80;;;23.88;;
20705;SDS011;10514;49.468;11.044;2022-08-19T05:15:44;32.35;;;23.77;;
20705;SDS011;10514;49.468;11.044;2022-08-19T05:18:10;36.75;;;24.73;;
20705;SDS011;10514;49.468;11.044;2022-08-19T05:20:54;37.67;;;25.25;;
20705;SDS011;10514;49.468;11.044;2022-08-19T05:23:39;32.20;;;23.33;;
20705;SDS011;10514;49.468;11.044;2022-08-19T05:26:05;34.33;;;23.42;;
20705;SDS011;10514;49.468;11.044;2022-08-19T05:28:31;38.22;;;24.63;;
20705;SDS011;10514;49.468;11.044;2022-08-19T05:30:57;38.60;;;26.60;;
20705;SDS011;10514;49.468;11.044;2022-08-19T05:33:23;31.63;;;21.90;;
20705;SDS011;10514;49.468;11.044;2022-08-19T05:35:49;34.60;;;24.50;;
20705;SDS011;10514;49.468;11.044;2022-08-19T05:38:16;34.78;;;24.02;;
20705;SDS011;10514;49.468;11.044;2022-08-19T05:40:42;30.83;;;21.15;;
20705;SDS011;10514;49.468;11.044;2022-08-19T05:43:12;35.03;;;24.77;;
20705;SDS011;10514;49.468;11.044;2022-08-19T05:45:41;34.10;;;25.33;;
20705;SDS011;10514;49.468;11.044;2022-08-19T05:48:07;34.47;;;24.88;;
20705;SDS011;10514;49.468;11.044;2022-08-19T05:50:36;33.60;;;23.90;;
20705;SDS011;10514;49.468;11.044;2022-08-19T05:53:02;30.45;;;23.70;;
20705;SDS011;10514;49.468;11.044;2022-08-19T05:55:27;31.50;;;23.20;;
20705;SDS011;10514;49.468;11.044;2022-08-19T05:57:53;26.00;;;19.83;;
20705;SDS011;10514;49.468;11.044;2022-08-19T06:00:19;33.13;;;22.88;;
20705;SDS011;10514;49.468;11.044;2022-08-19T06:02:45;27.02;;;19.85;;
20705;SDS011;10514;49.468;11.044;2022-08-19T06:05:11;32.22;;;22.55;;
20705;SDS011;10514;49.468;11.044;2022-08-19T06:07:37;30.50;;;21.88;;
20705;SDS011;10514;49.468;11.044;2022-08-19T06:10:04;30.95;;;23.52;;
20705;SDS011;10514;49.468;11.044;2022-08-19T06:12:31;34.65;;;23.50;;
20705;SDS011;10514;49.468;11.044;2022-08-19T06:14:59;27.55;;;21.50;;
20705;SDS011;10514;49.468;11.044;2022-08-19T06:17:25;32.72;;;22.98;;
20705;SDS011;10514;49.468;11.044;2022-08-19T06:19:51;27.30;;;21.85;;
20705;SDS011;10514;49.468;11.044;2022-08-19T06:22:17;26.80;;;20.92;;
20705;SDS011;10514;49.468;11.044;2022-08-19T06:24:43;34.67;;;22.73;;
20705;SDS011;10514;49.468;11.044;2022-08-19T06:27:09;28.63;;;20.98;;
20705;SDS011;10514;49.468;11.044;2022-08-19T06:29:35;27.23;;;18.27;;
20705;SDS011;10514;49.468;11.044;2022-08-19T06:32:01;24.50;;;18.85;;
20705;SDS011;10514;49.468;11.044;2022-08-19T06:34:28;23.55;;;17.63;;
20705;SDS011;10514;49.468;11.044;2022-08-19T06:36:55;28.98;;;21.00;;
20705;SDS011;10514;49.468;11.044;2022-08-19T06:39:23;29.63;;;21.42;;
20705;SDS011;10514;49.468;11.044;2022-08-19T06:41:54;25.13;;;19.13;;
20705;SDS011;10514;49.468;11.044;2022-08-19T06:44:21;27.35;;;21.75;;
20705;SDS011;10514;49.468;11.044;2022-08-19T06:46:47;25.15;;;18.80;;
20705;SDS011;10514;49.468;11.044;2022-08-19T06:49:14;29.38;;;20.00;;
20705;SDS011;10514;49.468;11.044;2022-08-19T06:51:42;23.35;;;18.65;;
20705;SDS011;10514;49.468;11.044;2022-08-19T06:54:08;22.70;;;18.15;;
20705;SDS011;10514;49.468;11.044;2022-08-19T06:56:35;30.00;;;18.27;;
20705;SDS011;10514;49.468;11.044;2022-08-19T06:59:05;22.02;;;16.70;;
20705;SDS011;10514;49.468;11.044;2022-08-19T07:01:36;21.23;;;18.10;;
20705;SDS011;10514;49.468;11.044;2022-08-19T07:04:05;25.40;;;20.35;;
20705;SDS011;10514;49.468;11.044;2022-08-19T07:06:31;22.40;;;17.83;;
20705;SDS011;10514;49.468;11.044;2022-08-19T07:08:57;26.67;;;19.80;;
20705;SDS011;10514;49.468;11.044;2022-08-19T07:11:23;24.02;;;18.90;;
20705;SDS011;10514;49.468;11.044;2022-08-19T07:13:49;29.42;;;20.75;;
20705;SDS011;10514;49.468;11.044;2022-08-19T07:16:17;30.25;;;22.02;;
20705;SDS011;10514;49.468;11.044;2022-08-19T07:18:47;22.95;;;17.95;;
20705;SDS011;10514;49.468;11.044;2022-08-19T07:21:14;21.25;;;17.15;;
20705;SDS011;10514;49.468;11.044;2022-08-19T07:23:41;26.48;;;18.83;;
20705;SDS011;10514;49.468;11.044;2022-08-19T07:26:21;18.27;;;14.77;;
20705;SDS011;10514;49.468;11.044;2022-08-19T07:28:48;17.02;;;13.70;;
20705;SDS011;10514;49.468;11.044;2022-08-19T07:31:17;17.63;;;14.70;;
20705;SDS011;10514;49.468;11.044;2022-08-19T07:33:45;17.60;;;12.82;;
20705;SDS011;10514;49.468;11.044;2022-08-19T07:36:12;14.48;;;10.77;;
20705;SDS011;10514;49.468;11.044;2022-08-19T07:38:40;15.15;;;12.38;;
20705;SDS011;10514;49.468;11.044;2022-08-19T07:41:06;14.82;;;12.60;;
20705;SDS011;10514;49.468;11.044;2022-08-19T07:43:33;14.70;;;13.18;;
20705;SDS011;10514;49.468;11.044;2022-08-19T07:45:58;18.48;;;13.85;;
20705;SDS011;10514;49.468;11.044;2022-08-19T07:48:25;18.40;;;14.70;;
20705;SDS011;10514;49.468;11.044;2022-08-19T07:50:52;18.98;;;15.45;;
20705;SDS011;10514;49.468;11.044;2022-08-19T07:53:19;19.77;;;15.25;;
20705;SDS011;10514;49.468;11.044;2022-08-19T07:55:45;21.83;;;15.60;;
20705;SDS011;10514;49.468;11.044;2022-08-19T07:58:11;18.20;;;14.05;;
20705;SDS011;10514;49.468;11.044;2022-08-19T08:00:40;21.30;;;15.48;;
20705;SDS011;10514;49.468;11.044;2022-08-19T08:03:06;19.77;;;15.18;;
20705;SDS011;10514;49.468;11.044;2022-08-19T08:05:33;20.40;;;15.80;;
20705;SDS011;10514;49.468;11.044;2022-08-19T08:08:17;20.65;;;16.45;;
20705;SDS011;10514;49.468;11.044;2022-08-19T08:11:06;21.98;;;15.50;;
20705;SDS011;10514;49.468;11.044;2022-08-19T08:13:32;20.98;;;15.98;;
20705;SDS011;10514;49.468;11.044;2022-08-19T08:16:01;20.90;;;15.80;;
20705;SDS011;10514;49.468;11.044;2022-08-19T08:18:27;21.48;;;16.27;;
20705;SDS011;10514;49.468;11.044;2022-08-19T08:20:53;23.27;;;17.50;;
20705;SDS011;10514;49.468;11.044;2022-08-19T08:23:19;23.23;;;17.67;;
20705;SDS011;10514;49.468;11.044;2022-08-19T08:25:49;23.88;;;18.25;;
20705;SDS011;10514;49.468;11.044;2022-08-19T08:28:16;29.10;;;18.17;;
20705;SDS011;10514;49.468;11.044;2022-08-19T08:30:42;27.17;;;20.42;;
20705;SDS011;10514;49.468;11.044;2022-08-19T08:33:10;37.78;;;22.75;;
20705;SDS011;10514;49.468;11.044;2022-08-19T08:35:37;35.95;;;21.50;;
20705;SDS011;10514;49.468;11.044;2022-08-19T08:38:03;32.75;;;22.27;;
20705;SDS011;10514;49.468;11.044;2022-08-19T08:43:17;25.30;;;19.95;;
20705;SDS011;10514;49.468;11.044;2022-08-19T08:45:47;38.20;;;21.70;;
20705;SDS011;10514;49.468;11.044;2022-08-19T08:48:20;29.23;;;21.60;;
20705;SDS011;10514;49.468;11.044;2022-08-19T08:50:49;29.63;;;21.98;;
20705;SDS011;10514;49.468;11.044;2022-08-19T08:53:19;33.60;;;21.50;;
20705;SDS011;10514;49.468;11.044;2022-08-19T08:55:45;33.60;;;23.42;;
20705;SDS011;10514;49.468;11.044;2022-08-19T08:58:25;27.48;;;21.40;;
20705;SDS011;10514;49.468;11.044;2022-08-19T09:00:52;32.15;;;23.15;;
20705;SDS011;10514;49.468;11.044;2022-08-19T09:03:19;31.90;;;22.13;;
20705;SDS011;10514;49.468;11.044;2022-08-19T09:08:39;31.42;;;21.60;;
20705;SDS011;10514;49.468;11.044;2022-08-19T09:11:07;30.48;;;21.65;;
20705;SDS011;10514;49.468;11.044;2022-08-19T09:16:14;24.70;;;18.08;;
20705;SDS011;10514;49.468;11.044;2022-08-19T09:18:51;25.33;;;17.88;;
20705;SDS011;10514;49.468;11.044;2022-08-19T09:21:19;27.02;;;18.98;;
20705;SDS011;10514;49.468;11.044;2022-08-19T09:23:45;24.38;;;18.00;;
20705;SDS011;10514;49.468;11.044;2022-08-19T09:26:14;28.13;;;19.88;;
20705;SDS011;10514;49.468;11.044;2022-08-19T09:28:41;23.40;;;16.02;;
20705;SDS011;10514;49.468;11.044;2022-08-19T09:31:11;21.95;;;16.08;;
20705;SDS011;10514;49.468;11.044;2022-08-19T09:33:38;24.13;;;18.58;;
20705;SDS011;10514;49.468;11.044;2022-08-19T09:36:08;23.40;;;18.73;;
20705;SDS011;10514;49.468;11.044;2022-08-19T09:38:35;24.15;;;18.40;;
20705;SDS011;10514;49.468;11.044;2022-08-19T09:41:04;26.08;;;18.63;;
20705;SDS011;10514;49.468;11.044;2022-08-19T09:43:31;26.23;;;19.00;;
20705;SDS011;10514;49.468;11.044;2022-08-19T09:45:58;25.70;;;19.75;;
20705;SDS011;10514;49.468;11.044;2022-08-19T09:48:25;26.15;;;20.13;;
20705;SDS011;10514;49.468;11.044;2022-08-19T09:50:51;28.13;;;20.45;;
20705;SDS011;10514;49.468;11.044;2022-08-19T09:53:17;29.40;;;21.42;;
20705;SDS011;10514;49.468;11.044;2022-08-19T09:55:43;28.30;;;19.80;;
20705;SDS011;10514;49.468;11.044;2022-08-19T09:58:09;26.10;;;19.55;;
20705;SDS011;10514;49.468;11.044;2022-08-19T10:00:37;28.77;;;21.92;;
20705;SDS011;10514;49.468;11.044;2022-08-19T10:03:03;25.25;;;19.95;;
20705;SDS011;10514;49.468;11.044;2022-08-19T10:05:29;34.58;;;21.70;;
20705;SDS011;10514;49.468;11.044;2022-08-19T10:08:14;29.40;;;21.35;;
20705;SDS011;10514;49.468;11.044;2022-08-19T10:10:41;25.42;;;19.15;;
20705;SDS011;10514;49.468;11.044;2022-08-19T10:13:08;29.75;;;21.67;;
20705;SDS011;10514;49.468;11.044;2022-08-19T10:15:34;28.83;;;18.90;;
20705;SDS011;10514;49.468;11.044;2022-08-19T10:18:00;24.92;;;19.23;;
20705;SDS011;10514;49.468;11.044;2022-08-19T10:20:26;27.25;;;19.65;;
20705;SDS011;10514;49.468;11.044;2022-08-19T10:22:52;24.58;;;18.75;;
20705;SDS011;10514;49.468;11.044;2022-08-19T10:25:18;25.52;;;18.20;;
20705;SDS011;10514;49.468;11.044;2022-08-19T10:27:44;30.88;;;18.98;;
20705;SDS011;10514;49.468;11.044;2022-08-19T10:30:10;25.40;;;18.17;;
20705;SDS011;10514;49.468;11.044;2022-08-19T10:32:36;29.80;;;19.05;;
20705;SDS011;10514;49.468;11.044;2022-08-19T10:35:03;24.48;;;17.83;;
20705;SDS011;10514;49.468;11.044;2022-08-19T10:37:32;28.08;;;18.10;;
20705;SDS011;10514;49.468;11.044;2022-08-19T10:39:59;24.65;;;16.40;;
20705;SDS011;10514;49.468;11.044;2022-08-19T10:42:26;24.75;;;18.83;;
20705;SDS011;10514;49.468;11.044;2022-08-19T10:44:52;24.40;;;17.98;;
20705;SDS011;10514;49.468;11.044;2022-08-19T10:47:18;22.10;;;18.50;;
20705;SDS011;10514;49.468;11.044;2022-08-19T10:49:45;23.67;;;17.83;;
20705;SDS011;10514;49.468;11.044;2022-08-19T10:52:32;28.13;;;17.88;;
20705;SDS011;10514;49.468;11.044;2022-08-19T10:54:59;25.90;;;20.13;;
20705;SDS011;10514;49.468;11.044;2022-08-19T10:57:44;21.30;;;16.40;;
20705;SDS011;10514;49.468;11.044;2022-08-19T11:00:10;21.08;;;16.48;;
20705;SDS011;10514;49.468;11.044;2022-08-19T11:02:36;20.60;;;16.15;;
20705;SDS011;10514;49.468;11.044;2022-08-19T11:05:02;21.42;;;16.58;;
20705;SDS011;10514;49.468;11.044;2022-08-19T11:07:28;21.52;;;17.00;;
20705;SDS011;10514;49.468;11.044;2022-08-19T11:09:54;18.58;;;15.32;;
20705;SDS011;10514;49.468;11.044;2022-08-19T11:12:20;24.67;;;16.80;;
20705;SDS011;10514;49.468;11.044;2022-08-19T11:14:46;19.65;;;14.45;;
20705;SDS011;10514;49.468;11.044;2022-08-19T11:17:14;21.55;;;17.35;;
20705;SDS011;10514;49.468;11.044;2022-08-19T11:19:40;25.85;;;17.77;;
20705;SDS011;10514;49.468;11.044;2022-08-19T11:22:08;19.13;;;15.77;;
20705;SDS011;10514;49.468;11.044;2022-08-19T11:24:34;19.73;;;14.85;;
20705;SDS011;10514;49.468;11.044;2022-08-19T11:27:01;20.45;;;15.73;;
20705;SDS011;10514;49.468;11.044;2022-08-19T11:29:29;22.67;;;17.38;;
20705;SDS011;10514;49.468;11.044;2022-08-19T11:31:55;20.60;;;16.58;;
20705;SDS011;10514;49.468;11.044;2022-08-19T11:34:22;21.67;;;16.42;;
20705;SDS011;10514;49.468;11.044;2022-08-19T11:36:49;19.10;;;16.20;;
20705;SDS011;10514;49.468;11.044;2022-08-19T11:39:17;20.13;;;15.10;;
20705;SDS011;10514;49.468;11.044;2022-08-19T11:41:43;21.73;;;16.02;;
20705;SDS011;10514;49.468;11.044;2022-08-19T11:44:09;19.98;;;16.05;;
20705;SDS011;10514;49.468;11.044;2022-08-19T11:46:36;20.90;;;17.50;;
20705;SDS011;10514;49.468;11.044;2022-08-19T11:49:02;20.60;;;16.52;;
20705;SDS011;10514;49.468;11.044;2022-08-19T11:51:30;25.38;;;17.45;;
20705;SDS011;10514;49.468;11.044;2022-08-19T11:53:57;19.20;;;17.05;;
20705;SDS011;10514;49.468;11.044;2022-08-19T11:56:24;21.75;;;17.10;;
20705;SDS011;10514;49.468;11.044;2022-08-19T11:58:50;20.50;;;17.55;;
20705;SDS011;10514;49.468;11.044;2022-08-19T12:01:17;22.08;;;17.92;;
20705;SDS011;10514;49.468;11.044;2022-08-19T12:03:45;21.63;;;16.55;;
20705;SDS011;10514;49.468;11.044;2022-08-19T12:06:14;21.05;;;17.30;;
20705;SDS011;10514;49.468;11.044;2022-08-19T12:08:42;21.20;;;16.15;;
20705;SDS011;10514;49.468;11.044;2022-08-19T12:11:08;24.80;;;17.83;;
20705;SDS011;10514;49.468;11.044;2022-08-19T12:13:35;19.88;;;15.43;;
20705;SDS011;10514;49.468;11.044;2022-08-19T12:16:24;18.50;;;15.65;;
20705;SDS011;10514;49.468;11.044;2022-08-19T12:18:48;22.85;;;15.82;;
20705;SDS011;10514;49.468;11.044;2022-08-19T12:21:16;20.42;;;16.70;;
20705;SDS011;10514;49.468;11.044;2022-08-19T12:23:46;21.27;;;16.27;;
20705;SDS011;10514;49.468;11.044;2022-08-19T12:26:12;21.60;;;16.77;;
20705;SDS011;10514;49.468;11.044;2022-08-19T12:28:38;23.33;;;16.13;;
20705;SDS011;10514;49.468;11.044;2022-08-19T12:31:04;21.33;;;18.30;;
20705;SDS011;10514;49.468;11.044;2022-08-19T12:33:30;23.10;;;18.77;;
20705;SDS011;10514;49.468;11.044;2022-08-19T12:35:59;19.10;;;16.13;;
20705;SDS011;10514;49.468;11.044;2022-08-19T12:38:26;21.67;;;16.50;;
20705;SDS011;10514;49.468;11.044;2022-08-19T12:40:52;20.42;;;17.65;;
20705;SDS011;10514;49.468;11.044;2022-08-19T12:43:18;23.45;;;17.88;;
20705;SDS011;10514;49.468;11.044;2022-08-19T12:45:47;24.50;;;19.13;;
20705;SDS011;10514;49.468;11.044;2022-08-19T12:48:13;26.38;;;20.25;;
20705;SDS011;10514;49.468;11.044;2022-08-19T12:50:39;24.80;;;20.15;;
20705;SDS011;10514;49.468;11.044;2022-08-19T12:53:05;24.88;;;19.73;;
20705;SDS011;10514;49.468;11.044;2022-08-19T12:55:31;23.75;;;18.95;;
20705;SDS011;10514;49.468;11.044;2022-08-19T12:57:57;24.75;;;20.08;;
20705;SDS011;10514;49.468;11.044;2022-08-19T13:00:26;26.45;;;20.80;;
20705;SDS011;10514;49.468;11.044;2022-08-19T13:02:52;26.42;;;19.67;;
20705;SDS011;10514;49.468;11.044;2022-08-19T13:05:19;25.38;;;19.63;;
20705;SDS011;10514;49.468;11.044;2022-08-19T13:07:48;26.33;;;21.63;;
20705;SDS011;10514;49.468;11.044;2022-08-19T13:10:16;26.30;;;21.05;;
20705;SDS011;10514;49.468;11.044;2022-08-19T13:12:43;23.00;;;19.05;;
20705;SDS011;10514;49.468;11.044;2022-08-19T13:15:10;38.30;;;28.10;;
20705;SDS011;10514;49.468;11.044;2022-08-19T13:17:37;44.88;;;33.70;;
20705;SDS011;10514;49.468;11.044;2022-08-19T13:20:03;30.90;;;23.90;;
20705;SDS011;10514;49.468;11.044;2022-08-19T13:22:32;25.60;;;19.55;;
20705;SDS011;10514;49.468;11.044;2022-08-19T13:24:58;28.42;;;22.08;;
20705;SDS011;10514;49.468;11.044;2022-08-19T13:27:24;24.05;;;20.38;;
20705;SDS011;10514;49.468;11.044;2022-08-19T13:29:50;23.58;;;18.48;;
20705;SDS011;10514;49.468;11.044;2022-08-19T13:32:35;25.90;;;20.50;;
20705;SDS011;10514;49.468;11.044;2022-08-19T13:35:19;27.05;;;20.65;;
20705;SDS011;10514;49.468;11.044;2022-08-19T13:37:45;30.58;;;21.92;;
20705;SDS011;10514;49.468;11.044;2022-08-19T13:40:13;28.67;;;22.40;;
20705;SDS011;10514;49.468;11.044;2022-08-19T13:42:42;29.33;;;23.30;;
20705;SDS011;10514;49.468;11.044;2022-08-19T13:45:09;25.55;;;21.00;;
20705;SDS011;10514;49.468;11.044;2022-08-19T13:47:35;27.42;;;21.40;;
20705;SDS011;10514;49.468;11.044;2022-08-19T13:50:04;27.25;;;22.42;;
20705;SDS011;10514;49.468;11.044;2022-08-19T13:52:30;29.73;;;22.98;;
20705;SDS011;10514;49.468;11.044;2022-08-19T13:54:56;27.77;;;23.33;;
20705;SDS011;10514;49.468;11.044;2022-08-19T13:57:22;27.08;;;23.35;;
20705;SDS011;10514;49.468;11.044;2022-08-19T13:59:48;37.13;;;25.20;;
20705;SDS011;10514;49.468;11.044;2022-08-19T14:02:15;33.40;;;25.17;;
20705;SDS011;10514;49.468;11.044;2022-08-19T14:04:41;33.97;;;24.40;;
20705;SDS011;10514;49.468;11.044;2022-08-19T14:07:07;33.65;;;25.92;;
20705;SDS011;10514;49.468;11.044;2022-08-19T14:09:34;31.65;;;26.25;;
20705;SDS011;10514;49.468;11.044;2022-08-19T14:12:00;33.95;;;25.98;;
20705;SDS011;10514;49.468;11.044;2022-08-19T14:14:26;36.67;;;23.95;;
20705;SDS011;10514;49.468;11.044;2022-08-19T14:16:52;32.22;;;25.90;;
20705;SDS011;10514;49.468;11.044;2022-08-19T14:19:18;32.33;;;25.90;;